Time;durP1;ratioP1;P1;durP2;ratioP2;P2;SDS_P1;SDS_P2;PMS_P1;PMS_P2;Temp;Humidity;BMP_temperature;BMP_pressure;BME280_temperature;BME280_humidity;BME280_pressure;Samples;Min_cycle;Max_cycle;Signal;HPM_P1;HPM_P2
2022/10/17 00:00:40;;;;;;;2.17;0.57;;;;;;;;;;6252545;22;20024;-42
2022/10/17 00:03:06;;;;;;;1.60;0.40;;;;;;;;;;6250773;22;20016;-45
2022/10/17 00:05:33;;;;;;;1.88;0.57;;;;;;;;;;6253917;22;20502;-44
2022/10/17 00:07:59;;;;;;;3.05;0.55;;;;;;;;;;6252688;22;20015;-46
2022/10/17 00:10:26;;;;;;;1.70;0.40;;;;;;;;;;6254892;22;20015;-46
2022/10/17 00:12:53;;;;;;;1.40;0.30;;;;;;;;;;6249562;22;20023;-44
2022/10/17 00:15:21;;;;;;;4.17;0.73;;;;;;;;;;6256092;22;20219;-42
2022/10/17 00:17:47;;;;;;;1.73;0.40;;;;;;;;;;6222638;22;20102;-41
2022/10/17 00:20:14;;;;;;;2.13;0.60;;;;;;;;;;6252538;22;20058;-41
2022/10/17 00:22:41;;;;;;;2.20;0.55;;;;;;;;;;6247854;22;20507;-44
2022/10/17 00:25:08;;;;;;;1.33;0.28;;;;;;;;;;6254956;22;20016;-44
2022/10/17 00:27:35;;;;;;;1.40;0.40;;;;;;;;;;6250966;22;20026;-44
2022/10/17 00:30:01;;;;;;;1.85;0.50;;;;;;;;;;6255300;22;20026;-42
2022/10/17 00:32:29;;;;;;;1.77;0.40;;;;;;;;;;6250786;22;20019;-42
2022/10/17 00:34:56;;;;;;;1.63;0.32;;;;;;;;;;6227038;22;20020;-41
2022/10/17 00:37:22;;;;;;;2.35;0.88;;;;;;;;;;6246304;22;20522;-42
2022/10/17 00:39:49;;;;;;;1.80;0.40;;;;;;;;;;6251909;22;20016;-45
2022/10/17 00:42:15;;;;;;;1.67;0.32;;;;;;;;;;6241767;22;20519;-43
2022/10/17 00:44:59;;;;;;;1.20;0.20;;;;;;;;;;6252197;22;20186;-44
2022/10/17 00:47:25;;;;;;;2.78;0.55;;;;;;;;;;6248630;22;20015;-43
2022/10/17 00:49:54;;;;;;;1.70;0.35;;;;;;;;;;6255279;22;20481;-43
2022/10/17 00:52:21;;;;;;;1.77;0.50;;;;;;;;;;6250806;22;20020;-41
2022/10/17 00:54:49;;;;;;;1.88;0.45;;;;;;;;;;6254040;22;20019;-43
2022/10/17 00:57:16;;;;;;;1.67;0.50;;;;;;;;;;6250418;22;20015;-43
2022/10/17 00:59:45;;;;;;;1.50;0.30;;;;;;;;;;6250819;22;20016;-42
2022/10/17 01:02:13;;;;;;;1.92;0.30;;;;;;;;;;6248120;22;20019;-41
2022/10/17 01:04:42;;;;;;;1.70;0.47;;;;;;;;;;6249904;22;20133;-42
2022/10/17 01:07:10;;;;;;;2.53;0.60;;;;;;;;;;6253834;22;20016;-42
2022/10/17 01:09:38;;;;;;;1.30;0.22;;;;;;;;;;6249741;22;20019;-43
2022/10/17 01:12:07;;;;;;;1.42;0.30;;;;;;;;;;6250525;22;20022;-42
2022/10/17 01:14:41;;;;;;;1.50;0.30;;;;;;;;;;6243890;22;20022;-42
2022/10/17 01:17:11;;;;;;;1.37;0.30;;;;;;;;;;6249626;22;20531;-42
2022/10/17 01:19:47;;;;;;;1.70;0.40;;;;;;;;;;6250548;22;20024;-42
2022/10/17 01:22:17;;;;;;;1.40;0.20;;;;;;;;;;6251816;22;20107;-44
2022/10/17 01:24:49;;;;;;;3.67;0.60;;;;;;;;;;6248679;22;20016;-43
2022/10/17 01:27:34;;;;;;;1.58;0.40;;;;;;;;;;6248564;22;20023;-42
2022/10/17 01:30:06;;;;;;;1.70;0.40;;;;;;;;;;6250124;22;20015;-42
2022/10/17 01:32:36;;;;;;;1.75;0.40;;;;;;;;;;6252642;22;20022;-42
2022/10/17 01:35:05;;;;;;;3.78;0.50;;;;;;;;;;6249094;22;20022;-41
2022/10/17 01:37:33;;;;;;;1.88;0.50;;;;;;;;;;6252137;22;20019;-42
2022/10/17 01:40:02;;;;;;;1.50;0.30;;;;;;;;;;6250043;22;20019;-43
2022/10/17 01:42:31;;;;;;;8.93;1.03;;;;;;;;;;6250086;22;20023;-42
2022/10/17 01:45:01;;;;;;;1.30;0.22;;;;;;;;;;6250874;22;20047;-42
2022/10/17 01:47:29;;;;;;;1.67;0.40;;;;;;;;;;6248175;22;20552;-42
2022/10/17 01:50:00;;;;;;;2.50;0.50;;;;;;;;;;6246113;22;20039;-41
2022/10/17 01:52:28;;;;;;;1.98;0.50;;;;;;;;;;6250165;22;20023;-43
2022/10/17 01:54:57;;;;;;;1.70;0.40;;;;;;;;;;6247422;22;20012;-42
2022/10/17 01:57:26;;;;;;;1.95;0.52;;;;;;;;;;6252486;22;20016;-44
2022/10/17 01:59:55;;;;;;;2.17;0.28;;;;;;;;;;6252024;22;20015;-44
2022/10/17 02:02:22;;;;;;;1.60;0.52;;;;;;;;;;6254763;22;20024;-43
2022/10/17 02:04:49;;;;;;;1.60;0.30;;;;;;;;;;6253193;22;20027;-42
2022/10/17 02:07:18;;;;;;;1.70;0.40;;;;;;;;;;6256719;22;20020;-42
2022/10/17 02:09:45;;;;;;;1.70;0.38;;;;;;;;;;6228237;22;20014;-42
2022/10/17 02:12:20;;;;;;;2.85;0.85;;;;;;;;;;6256031;22;20398;-42
2022/10/17 02:14:54;;;;;;;1.90;0.77;;;;;;;;;;6253771;22;20019;-43
2022/10/17 02:17:27;;;;;;;1.60;0.40;;;;;;;;;;6255695;22;20062;-42
2022/10/17 02:19:58;;;;;;;2.00;0.53;;;;;;;;;;6252451;22;20465;-43
2022/10/17 02:22:30;;;;;;;1.63;0.43;;;;;;;;;;6240973;22;20093;-42
2022/10/17 02:25:00;;;;;;;1.27;0.25;;;;;;;;;;6254690;22;20533;-44
2022/10/17 02:27:33;;;;;;;1.40;0.30;;;;;;;;;;6255660;22;20454;-41
2022/10/17 02:30:02;;;;;;;1.75;0.70;;;;;;;;;;6251207;22;20022;-42
2022/10/17 02:32:30;;;;;;;1.93;0.50;;;;;;;;;;6225221;22;20281;-43
2022/10/17 02:34:58;;;;;;;1.70;0.50;;;;;;;;;;6255138;22;20069;-43
2022/10/17 02:37:28;;;;;;;3.08;0.55;;;;;;;;;;6239907;22;20512;-44
2022/10/17 02:39:55;;;;;;;1.73;0.50;;;;;;;;;;6256367;22;20012;-43
2022/10/17 02:42:22;;;;;;;3.72;1.00;;;;;;;;;;6250760;22;20511;-41
2022/10/17 02:44:49;;;;;;;1.60;0.40;;;;;;;;;;6254968;22;20074;-42
2022/10/17 02:47:19;;;;;;;3.60;0.73;;;;;;;;;;6253776;22;20012;-42
2022/10/17 02:49:47;;;;;;;2.00;0.50;;;;;;;;;;6243845;22;20575;-42
2022/10/17 02:52:15;;;;;;;9.02;1.38;;;;;;;;;;6228288;22;20807;-43
2022/10/17 02:54:46;;;;;;;2.92;1.30;;;;;;;;;;6251749;22;20446;-44
2022/10/17 02:57:15;;;;;;;1.67;0.40;;;;;;;;;;6254467;22;20022;-42
2022/10/17 02:59:44;;;;;;;4.80;0.70;;;;;;;;;;6254420;22;20043;-43
2022/10/17 03:02:10;;;;;;;3.22;0.90;;;;;;;;;;6252752;22;20579;-42
2022/10/17 03:04:37;;;;;;;2.40;0.30;;;;;;;;;;6254190;22;20508;-42
2022/10/17 03:07:03;;;;;;;2.00;0.60;;;;;;;;;;6253489;22;20167;-43
2022/10/17 03:09:30;;;;;;;1.73;0.40;;;;;;;;;;6255295;22;20015;-43
2022/10/17 03:11:57;;;;;;;4.75;0.82;;;;;;;;;;6252741;22;20022;-42
2022/10/17 03:14:24;;;;;;;2.10;0.50;;;;;;;;;;6255530;22;20012;-42
2022/10/17 03:16:50;;;;;;;3.08;0.88;;;;;;;;;;6250668;22;20019;-42
2022/10/17 03:19:17;;;;;;;4.13;1.05;;;;;;;;;;6241562;22;20388;-43
2022/10/17 03:21:43;;;;;;;2.20;0.70;;;;;;;;;;6256394;22;20008;-42
2022/10/17 03:24:10;;;;;;;1.27;0.30;;;;;;;;;;6252635;22;20015;-44
2022/10/17 03:26:36;;;;;;;1.38;0.28;;;;;;;;;;6253045;22;20020;-42
2022/10/17 03:29:04;;;;;;;2.08;0.77;;;;;;;;;;6226642;22;20385;-41
2022/10/17 03:31:31;;;;;;;2.28;0.70;;;;;;;;;;6250504;22;20499;-43
2022/10/17 03:33:57;;;;;;;5.93;0.57;;;;;;;;;;6251764;22;20434;-44
2022/10/17 03:36:23;;;;;;;5.00;0.95;;;;;;;;;;6254793;22;20014;-42
2022/10/17 03:38:53;;;;;;;5.72;0.75;;;;;;;;;;6257519;22;20070;-43
2022/10/17 03:41:20;;;;;;;4.68;1.20;;;;;;;;;;6244497;22;20491;-42
2022/10/17 03:43:46;;;;;;;2.72;0.80;;;;;;;;;;6253542;22;20338;-44
2022/10/17 03:46:15;;;;;;;1.70;0.40;;;;;;;;;;6250796;22;20023;-43
2022/10/17 03:48:41;;;;;;;3.05;0.98;;;;;;;;;;6253300;22;20085;-42
2022/10/17 03:51:08;;;;;;;1.95;0.50;;;;;;;;;;6220385;22;20011;-42
2022/10/17 03:53:35;;;;;;;3.55;0.70;;;;;;;;;;6254145;22;20012;-43
2022/10/17 03:56:08;;;;;;;2.78;0.85;;;;;;;;;;6252057;22;20446;-42
2022/10/17 03:58:35;;;;;;;1.53;0.30;;;;;;;;;;6252464;22;20062;-43
2022/10/17 04:01:03;;;;;;;3.22;1.08;;;;;;;;;;6253974;22;20019;-42
2022/10/17 04:03:31;;;;;;;2.15;0.65;;;;;;;;;;6252304;22;20093;-43
2022/10/17 04:05:58;;;;;;;2.00;0.45;;;;;;;;;;6255169;22;20065;-42
2022/10/17 04:08:25;;;;;;;1.70;0.40;;;;;;;;;;6251696;22;20588;-43
2022/10/17 04:10:51;;;;;;;1.53;0.40;;;;;;;;;;6257170;22;20058;-42
2022/10/17 04:13:18;;;;;;;4.00;0.90;;;;;;;;;;6248595;22;20451;-42
2022/10/17 04:15:53;;;;;;;1.50;0.30;;;;;;;;;;6252201;22;20015;-43
2022/10/17 04:18:20;;;;;;;4.35;0.90;;;;;;;;;;6253359;22;20735;-42
2022/10/17 04:20:48;;;;;;;1.83;0.52;;;;;;;;;;6229652;22;20015;-42
2022/10/17 04:23:14;;;;;;;1.63;0.60;;;;;;;;;;6249664;22;20016;-42
2022/10/17 04:25:41;;;;;;;1.83;0.55;;;;;;;;;;6257134;22;20020;-42
2022/10/17 04:28:08;;;;;;;1.40;0.30;;;;;;;;;;6254752;22;20012;-42
2022/10/17 04:30:34;;;;;;;1.55;0.30;;;;;;;;;;6254042;22;20505;-42
2022/10/17 04:33:01;;;;;;;1.52;0.63;;;;;;;;;;6254509;22;20401;-42
2022/10/17 04:35:27;;;;;;;1.40;0.30;;;;;;;;;;6251624;22;20019;-42
2022/10/17 04:37:55;;;;;;;1.52;0.38;;;;;;;;;;6254572;22;20034;-43
2022/10/17 04:40:21;;;;;;;1.88;0.40;;;;;;;;;;6254657;22;20512;-42
2022/10/17 04:42:48;;;;;;;1.30;0.30;;;;;;;;;;6253878;22;20016;-42
2022/10/17 04:45:14;;;;;;;2.65;0.30;;;;;;;;;;6257212;22;20019;-42
2022/10/17 04:47:41;;;;;;;1.60;0.33;;;;;;;;;;6256785;22;20015;-43
2022/10/17 04:50:08;;;;;;;5.88;1.27;;;;;;;;;;6255083;22;20099;-44
2022/10/17 04:52:36;;;;;;;2.08;0.50;;;;;;;;;;6251373;22;20516;-43
2022/10/17 04:55:04;;;;;;;1.25;0.25;;;;;;;;;;6256745;22;20465;-42
2022/10/17 04:57:33;;;;;;;4.20;1.33;;;;;;;;;;6253111;22;20015;-47
2022/10/17 05:00:00;;;;;;;2.00;0.60;;;;;;;;;;6253402;22;20020;-42
2022/10/17 05:02:26;;;;;;;2.85;0.57;;;;;;;;;;6190884;23;20029;-44
2022/10/17 05:04:53;;;;;;;3.85;1.10;;;;;;;;;;6193769;23;20087;-45
2022/10/17 05:07:20;;;;;;;4.13;0.82;;;;;;;;;;6192018;23;20134;-42
2022/10/17 05:09:48;;;;;;;1.70;0.40;;;;;;;;;;6194806;23;20012;-43
2022/10/17 05:12:16;;;;;;;2.80;0.67;;;;;;;;;;6191036;23;20075;-42
2022/10/17 05:14:42;;;;;;;2.78;0.40;;;;;;;;;;6216043;23;20016;-42
2022/10/17 05:17:08;;;;;;;6.93;0.75;;;;;;;;;;6194268;23;20012;-42
2022/10/17 05:19:35;;;;;;;1.77;0.50;;;;;;;;;;6188228;23;20013;-43
2022/10/17 05:22:01;;;;;;;1.60;0.40;;;;;;;;;;6194247;23;20017;-42
2022/10/17 05:24:28;;;;;;;2.50;0.63;;;;;;;;;;6191050;23;20012;-44
2022/10/17 05:26:54;;;;;;;1.50;0.30;;;;;;;;;;6195340;23;20347;-42
2022/10/17 05:29:22;;;;;;;2.20;0.73;;;;;;;;;;6194655;23;20542;-41
2022/10/17 05:31:49;;;;;;;2.25;0.68;;;;;;;;;;6194922;23;20325;-43
2022/10/17 05:34:16;;;;;;;6.32;0.95;;;;;;;;;;6191753;23;20071;-43
2022/10/17 05:36:42;;;;;;;1.93;0.50;;;;;;;;;;6193628;23;20435;-43
2022/10/17 05:39:09;;;;;;;2.28;0.82;;;;;;;;;;6185212;23;20127;-42
2022/10/17 05:41:35;;;;;;;2.58;0.85;;;;;;;;;;6194683;23;20063;-42
2022/10/17 05:44:02;;;;;;;1.38;0.30;;;;;;;;;;6191836;23;20024;-44
2022/10/17 05:46:30;;;;;;;3.80;1.45;;;;;;;;;;6194541;23;20016;-42
2022/10/17 05:48:56;;;;;;;1.73;0.30;;;;;;;;;;6192953;23;20017;-45
2022/10/17 05:51:23;;;;;;;1.35;0.20;;;;;;;;;;6191829;23;20012;-43
2022/10/17 05:53:50;;;;;;;7.40;0.60;;;;;;;;;;6192598;23;20016;-43
2022/10/17 05:56:17;;;;;;;1.92;0.43;;;;;;;;;;6194067;23;20079;-43
2022/10/17 05:58:44;;;;;;;1.65;0.32;;;;;;;;;;6188760;23;20020;-44
2022/10/17 06:01:12;;;;;;;2.97;0.67;;;;;;;;;;6222151;22;20034;-43
2022/10/17 06:03:40;;;;;;;3.10;1.58;;;;;;;;;;6250078;22;20539;-44
2022/10/17 06:06:07;;;;;;;2.58;0.88;;;;;;;;;;6256235;22;20023;-44
2022/10/17 06:08:34;;;;;;;4.97;1.80;;;;;;;;;;6252841;22;20011;-42
2022/10/17 06:11:00;;;;;;;2.90;0.93;;;;;;;;;;6255521;22;20442;-43
2022/10/17 06:13:27;;;;;;;1.40;0.30;;;;;;;;;;6252436;22;20011;-42
2022/10/17 06:15:54;;;;;;;2.00;1.10;;;;;;;;;;6253282;22;20012;-44
2022/10/17 06:18:20;;;;;;;1.40;0.30;;;;;;;;;;6223867;22;20016;-45
2022/10/17 06:20:48;;;;;;;5.10;0.50;;;;;;;;;;6255041;22;20019;-42
2022/10/17 06:23:15;;;;;;;11.02;1.30;;;;;;;;;;6252194;22;20020;-45
2022/10/17 06:25:42;;;;;;;3.80;0.70;;;;;;;;;;6253998;22;20015;-45
2022/10/17 06:28:09;;;;;;;1.60;0.30;;;;;;;;;;6253006;22;20023;-43
2022/10/17 06:30:37;;;;;;;2.25;0.57;;;;;;;;;;6251489;22;20022;-45
2022/10/17 06:33:04;;;;;;;1.77;0.47;;;;;;;;;;6247264;22;20015;-47
2022/10/17 06:35:31;;;;;;;1.70;0.40;;;;;;;;;;6242768;22;20020;-41
2022/10/17 06:37:59;;;;;;;2.13;0.97;;;;;;;;;;6221283;22;20018;-43
2022/10/17 06:40:25;;;;;;;3.40;0.63;;;;;;;;;;6251084;22;20016;-44
2022/10/17 06:42:53;;;;;;;1.50;0.30;;;;;;;;;;6251283;22;20070;-41
2022/10/17 06:45:19;;;;;;;2.17;0.60;;;;;;;;;;6250208;22;20043;-42
2022/10/17 06:47:46;;;;;;;2.75;0.70;;;;;;;;;;6251481;22;20015;-44
2022/10/17 06:50:12;;;;;;;4.57;1.00;;;;;;;;;;6223834;22;20578;-42
2022/10/17 06:52:39;;;;;;;6.00;1.08;;;;;;;;;;6251735;22;20015;-43
2022/10/17 06:55:07;;;;;;;1.65;0.40;;;;;;;;;;6258136;22;20388;-41
2022/10/17 06:57:33;;;;;;;2.67;0.98;;;;;;;;;;6249861;22;20016;-43
2022/10/17 07:00:00;;;;;;;3.38;1.15;;;;;;;;;;6224524;22;20356;-42
2022/10/17 07:02:26;;;;;;;4.70;0.90;;;;;;;;;;6249666;22;20065;-43
2022/10/17 07:04:55;;;;;;;1.52;0.32;;;;;;;;;;6229037;22;20478;-45
2022/10/17 07:07:21;;;;;;;1.75;0.50;;;;;;;;;;6254605;22;20094;-42
2022/10/17 07:09:48;;;;;;;3.47;0.82;;;;;;;;;;6255268;22;20114;-44
2022/10/17 07:12:16;;;;;;;2.05;0.60;;;;;;;;;;6249690;22;20019;-44
2022/10/17 07:14:46;;;;;;;1.90;0.50;;;;;;;;;;6255320;22;20037;-42
2022/10/17 07:17:13;;;;;;;1.33;0.30;;;;;;;;;;6253338;22;20090;-42
2022/10/17 07:19:42;;;;;;;2.20;0.50;;;;;;;;;;6249160;22;20011;-45
2022/10/17 07:22:08;;;;;;;1.35;0.30;;;;;;;;;;6253609;22;20022;-44
2022/10/17 07:24:35;;;;;;;2.03;0.65;;;;;;;;;;6248937;22;20023;-42
2022/10/17 07:27:01;;;;;;;2.13;0.43;;;;;;;;;;6253409;22;20089;-42
2022/10/17 07:29:29;;;;;;;2.75;1.35;;;;;;;;;;6256667;22;20020;-43
2022/10/17 07:31:56;;;;;;;2.92;1.02;;;;;;;;;;6249965;22;20015;-42
2022/10/17 07:34:26;;;;;;;1.90;0.50;;;;;;;;;;6256796;22;20630;-44
2022/10/17 07:36:53;;;;;;;8.25;0.85;;;;;;;;;;6251533;22;20015;-42
2022/10/17 07:39:19;;;;;;;2.73;0.80;;;;;;;;;;6248882;22;20012;-42
2022/10/17 07:41:46;;;;;;;1.58;0.40;;;;;;;;;;6229026;22;20102;-44
2022/10/17 07:44:14;;;;;;;4.00;0.90;;;;;;;;;;6239162;22;20024;-43
2022/10/17 07:46:41;;;;;;;7.10;2.15;;;;;;;;;;6251971;22;20020;-41
2022/10/17 07:49:08;;;;;;;1.55;0.38;;;;;;;;;;6248634;22;20773;-41
2022/10/17 07:51:34;;;;;;;1.93;0.67;;;;;;;;;;6250596;22;20016;-42
2022/10/17 07:54:01;;;;;;;2.42;0.70;;;;;;;;;;6248888;22;20037;-43
2022/10/17 07:56:28;;;;;;;2.17;0.73;;;;;;;;;;6248935;22;20067;-42
2022/10/17 07:58:55;;;;;;;1.90;0.63;;;;;;;;;;6248487;22;20020;-44
2022/10/17 08:01:21;;;;;;;8.50;0.98;;;;;;;;;;6251169;22;20480;-42
2022/10/17 08:03:49;;;;;;;1.50;0.30;;;;;;;;;;6247175;22;20463;-42
2022/10/17 08:06:16;;;;;;;1.30;0.20;;;;;;;;;;6248613;22;20024;-43
2022/10/17 08:08:43;;;;;;;5.13;0.50;;;;;;;;;;6249244;22;20094;-44
2022/10/17 08:11:10;;;;;;;1.80;0.63;;;;;;;;;;6249562;22;20023;-44
2022/10/17 08:13:37;;;;;;;1.85;0.70;;;;;;;;;;6241040;22;20015;-42
2022/10/17 08:16:06;;;;;;;2.83;0.77;;;;;;;;;;6247968;22;20538;-43
2022/10/17 08:18:32;;;;;;;2.40;1.05;;;;;;;;;;6233595;22;20039;-43
2022/10/17 08:21:00;;;;;;;1.75;0.63;;;;;;;;;;6210276;22;20065;-43
2022/10/17 08:23:27;;;;;;;1.48;0.38;;;;;;;;;;6232554;22;20019;-42
2022/10/17 08:25:54;;;;;;;1.67;0.40;;;;;;;;;;6239647;22;20020;-43
2022/10/17 08:28:20;;;;;;;5.27;0.73;;;;;;;;;;6234204;22;20022;-42
2022/10/17 08:30:46;;;;;;;1.48;0.30;;;;;;;;;;6211034;22;20027;-43
2022/10/17 08:33:13;;;;;;;2.90;0.50;;;;;;;;;;6230998;22;20310;-44
2022/10/17 08:35:40;;;;;;;4.55;1.13;;;;;;;;;;6225167;22;20026;-45
2022/10/17 08:38:07;;;;;;;2.45;0.73;;;;;;;;;;6235748;22;20015;-44
2022/10/17 08:40:35;;;;;;;3.77;0.63;;;;;;;;;;6238069;22;20019;-43
2022/10/17 08:43:16;;;;;;;1.92;0.30;;;;;;;;;;6235000;22;20015;-42
2022/10/17 08:45:46;;;;;;;1.70;0.70;;;;;;;;;;6207787;22;20023;-43
2022/10/17 08:48:14;;;;;;;1.50;0.30;;;;;;;;;;6230173;22;20027;-43
2022/10/17 08:50:43;;;;;;;2.95;0.55;;;;;;;;;;6235891;22;20382;-43
2022/10/17 08:53:13;;;;;;;1.17;0.20;;;;;;;;;;6234291;22;20020;-44
2022/10/17 08:55:40;;;;;;;1.38;0.28;;;;;;;;;;6238712;22;20126;-46
2022/10/17 08:58:12;;;;;;;6.07;0.70;;;;;;;;;;6229752;22;20448;-47
2022/10/17 09:00:39;;;;;;;1.98;0.40;;;;;;;;;;6240829;22;20042;-46
2022/10/17 09:03:13;;;;;;;5.93;1.85;;;;;;;;;;6238317;22;20019;-42
2022/10/17 09:05:44;;;;;;;3.23;0.87;;;;;;;;;;6242342;22;20378;-43
2022/10/17 09:08:23;;;;;;;2.63;0.57;;;;;;;;;;6231387;22;20045;-44
2022/10/17 09:10:53;;;;;;;3.38;0.85;;;;;;;;;;6236107;22;20354;-46
2022/10/17 09:13:24;;;;;;;2.92;1.00;;;;;;;;;;6238572;22;20019;-44
2022/10/17 09:16:01;;;;;;;2.75;0.38;;;;;;;;;;6235792;22;20074;-44
2022/10/17 09:18:30;;;;;;;4.40;0.90;;;;;;;;;;6242631;22;20019;-44
2022/10/17 09:21:00;;;;;;;2.17;0.60;;;;;;;;;;6235934;22;20098;-42
2022/10/17 09:23:30;;;;;;;2.63;0.63;;;;;;;;;;6242032;22;20127;-42
2022/10/17 09:25:59;;;;;;;2.30;0.82;;;;;;;;;;6236655;22;20058;-46
2022/10/17 09:28:27;;;;;;;1.58;0.45;;;;;;;;;;6239995;22;20476;-43
2022/10/17 09:30:56;;;;;;;1.37;0.40;;;;;;;;;;6236395;22;20020;-43
2022/10/17 09:33:27;;;;;;;2.30;0.50;;;;;;;;;;6238957;22;20019;-45
2022/10/17 09:35:54;;;;;;;8.02;0.85;;;;;;;;;;6227783;22;20016;-43
2022/10/17 09:38:22;;;;;;;2.45;0.95;;;;;;;;;;6257435;22;20019;-43
2022/10/17 09:40:51;;;;;;;1.60;0.38;;;;;;;;;;6251288;22;20487;-42
2022/10/17 09:43:18;;;;;;;5.47;0.40;;;;;;;;;;6255350;22;20011;-43
2022/10/17 09:45:47;;;;;;;7.10;0.98;;;;;;;;;;6255619;22;20449;-43
2022/10/17 09:48:18;;;;;;;2.00;0.40;;;;;;;;;;6251530;22;20934;-45
2022/10/17 09:50:45;;;;;;;1.30;0.30;;;;;;;;;;6258368;22;20104;-44
2022/10/17 09:53:13;;;;;;;2.78;1.70;;;;;;;;;;6250799;22;20035;-44
2022/10/17 09:55:41;;;;;;;5.40;0.40;;;;;;;;;;6252924;22;20015;-44
2022/10/17 09:58:10;;;;;;;2.63;0.90;;;;;;;;;;6238371;22;20035;-42
2022/10/17 10:00:37;;;;;;;6.28;0.57;;;;;;;;;;6237246;22;20042;-43
2022/10/17 10:03:12;;;;;;;1.40;0.30;;;;;;;;;;6239274;22;20446;-44
2022/10/17 10:05:39;;;;;;;1.42;0.30;;;;;;;;;;6240859;22;20020;-44
2022/10/17 10:08:12;;;;;;;1.30;0.30;;;;;;;;;;6228091;22;20457;-43
2022/10/17 10:10:41;;;;;;;2.88;0.50;;;;;;;;;;6239322;22;20015;-43
2022/10/17 10:13:17;;;;;;;1.80;0.40;;;;;;;;;;6233157;22;20411;-43
2022/10/17 10:15:45;;;;;;;2.00;0.50;;;;;;;;;;6239884;22;20016;-43
2022/10/17 10:18:28;;;;;;;2.47;0.40;;;;;;;;;;6228944;22;20016;-42
2022/10/17 10:21:03;;;;;;;3.20;0.60;;;;;;;;;;6239511;22;20012;-42
2022/10/17 10:23:30;;;;;;;2.70;0.75;;;;;;;;;;6237550;22;20023;-43
2022/10/17 10:25:58;;;;;;;1.80;0.45;;;;;;;;;;6236563;22;20450;-44
2022/10/17 10:28:28;;;;;;;1.90;0.65;;;;;;;;;;6232569;22;20019;-43
2022/10/17 10:30:56;;;;;;;1.83;0.55;;;;;;;;;;6240779;22;20089;-44
2022/10/17 10:33:23;;;;;;;2.60;0.80;;;;;;;;;;6236721;22;20543;-44
2022/10/17 10:35:56;;;;;;;4.50;0.63;;;;;;;;;;6237412;22;20466;-43
2022/10/17 10:38:23;;;;;;;1.75;0.45;;;;;;;;;;6236503;22;20382;-43
2022/10/17 10:40:51;;;;;;;2.63;0.80;;;;;;;;;;6234674;22;20869;-42
2022/10/17 10:43:23;;;;;;;1.73;0.40;;;;;;;;;;6235617;22;20015;-42
2022/10/17 10:45:51;;;;;;;7.73;1.27;;;;;;;;;;6237909;22;20365;-43
2022/10/17 10:48:22;;;;;;;1.48;0.40;;;;;;;;;;6231802;22;20480;-44
2022/10/17 10:50:50;;;;;;;2.63;0.47;;;;;;;;;;6239201;22;20016;-44
2022/10/17 10:53:25;;;;;;;1.10;0.20;;;;;;;;;;6210554;22;20420;-44
2022/10/17 10:55:54;;;;;;;2.38;0.68;;;;;;;;;;6235613;22;20070;-43
2022/10/17 10:58:27;;;;;;;2.00;0.40;;;;;;;;;;6236476;22;20011;-42
2022/10/17 11:00:56;;;;;;;3.63;0.68;;;;;;;;;;6194086;23;20092;-42
2022/10/17 11:03:26;;;;;;;2.35;0.50;;;;;;;;;;6175925;23;20097;-43
2022/10/17 11:05:58;;;;;;;1.83;0.32;;;;;;;;;;6178218;23;20110;-43
2022/10/17 11:08:28;;;;;;;1.70;0.50;;;;;;;;;;6171334;23;20443;-44
2022/10/17 11:11:12;;;;;;;1.87;0.50;;;;;;;;;;6177499;23;20066;-46
2022/10/17 11:13:43;;;;;;;4.65;0.47;;;;;;;;;;6176591;23;20016;-44
2022/10/17 11:16:16;;;;;;;5.35;0.65;;;;;;;;;;6170871;23;20017;-43
2022/10/17 11:18:45;;;;;;;1.35;0.30;;;;;;;;;;6172870;23;20021;-43
2022/10/17 11:21:15;;;;;;;2.03;0.50;;;;;;;;;;6176827;23;20017;-42
2022/10/17 11:23:45;;;;;;;1.77;0.40;;;;;;;;;;6176660;23;20020;-42
2022/10/17 11:26:15;;;;;;;2.22;0.47;;;;;;;;;;6164485;23;20477;-43
2022/10/17 11:28:42;;;;;;;2.05;0.57;;;;;;;;;;6178048;23;20013;-43
2022/10/17 11:31:12;;;;;;;4.63;0.50;;;;;;;;;;6177354;23;20024;-42
2022/10/17 11:33:43;;;;;;;1.55;0.40;;;;;;;;;;6172693;23;20478;-42
2022/10/17 11:36:11;;;;;;;2.40;0.77;;;;;;;;;;6169677;23;20016;-43
2022/10/17 11:38:43;;;;;;;1.65;0.47;;;;;;;;;;6172406;23;20016;-42
2022/10/17 11:41:12;;;;;;;3.10;0.52;;;;;;;;;;6170031;23;20022;-42
2022/10/17 11:43:42;;;;;;;1.55;0.30;;;;;;;;;;6174217;23;20443;-42
2022/10/17 11:46:12;;;;;;;1.77;0.43;;;;;;;;;;6161167;23;20035;-43
2022/10/17 11:48:42;;;;;;;2.43;0.70;;;;;;;;;;6175558;23;20020;-41
2022/10/17 11:51:11;;;;;;;2.05;0.75;;;;;;;;;;6166310;23;20132;-41
2022/10/17 11:53:44;;;;;;;9.23;1.15;;;;;;;;;;6180464;23;20021;-41
2022/10/17 11:56:12;;;;;;;1.70;0.43;;;;;;;;;;6167885;23;20020;-42
2022/10/17 11:58:41;;;;;;;2.05;0.85;;;;;;;;;;6177464;23;20100;-42
2022/10/17 12:01:13;;;;;;;3.77;1.30;;;;;;;;;;6202778;22;20070;-43
2022/10/17 12:03:53;;;;;;;1.73;0.43;;;;;;;;;;6236685;22;20316;-41
2022/10/17 12:06:23;;;;;;;1.92;0.40;;;;;;;;;;6227382;22;20023;-42
2022/10/17 12:08:54;;;;;;;3.53;0.73;;;;;;;;;;6204749;22;20510;-42
2022/10/17 12:11:27;;;;;;;1.80;0.35;;;;;;;;;;6235594;22;20016;-42
2022/10/17 12:13:55;;;;;;;1.87;0.37;;;;;;;;;;6236251;22;20039;-43
2022/10/17 12:16:39;;;;;;;1.85;0.55;;;;;;;;;;6224990;22;20110;-42
2022/10/17 12:19:19;;;;;;;1.88;0.30;;;;;;;;;;6236550;22;20450;-42
2022/10/17 12:21:54;;;;;;;2.47;0.88;;;;;;;;;;6206551;22;20662;-42
2022/10/17 12:24:27;;;;;;;2.13;0.47;;;;;;;;;;6231520;22;20025;-42
2022/10/17 12:26:54;;;;;;;2.47;0.53;;;;;;;;;;6189900;22;20018;-44
2022/10/17 12:29:26;;;;;;;2.00;0.68;;;;;;;;;;6227256;22;20019;-44
2022/10/17 12:31:53;;;;;;;1.60;0.40;;;;;;;;;;6229896;22;20469;-43
2022/10/17 12:34:22;;;;;;;6.70;0.93;;;;;;;;;;6230919;22;20020;-43
2022/10/17 12:36:49;;;;;;;2.13;0.45;;;;;;;;;;6222005;22;20115;-43
2022/10/17 12:39:42;;;;;;;2.40;0.40;;;;;;;;;;6230274;22;20094;-44
2022/10/17 12:42:23;;;;;;;3.28;0.60;;;;;;;;;;6165518;22;20024;-44
2022/10/17 12:44:50;;;;;;;1.70;0.40;;;;;;;;;;6238743;22;20030;-44
2022/10/17 12:47:36;;;;;;;2.10;0.40;;;;;;;;;;6231287;22;20381;-45
2022/10/17 12:50:25;;;;;;;2.22;0.60;;;;;;;;;;6241745;22;20039;-45
2022/10/17 12:53:00;;;;;;;2.27;0.63;;;;;;;;;;6238942;22;20094;-45
2022/10/17 12:55:27;;;;;;;1.40;0.30;;;;;;;;;;6234528;22;20065;-44
2022/10/17 12:57:55;;;;;;;3.60;0.40;;;;;;;;;;6233032;22;20100;-43
2022/10/17 13:00:23;;;;;;;2.00;0.50;;;;;;;;;;6235307;22;20115;-42
2022/10/17 13:02:53;;;;;;;2.20;0.50;;;;;;;;;;6213673;22;20019;-45
2022/10/17 13:05:24;;;;;;;1.80;0.40;;;;;;;;;;6208079;22;20029;-44
2022/10/17 13:07:51;;;;;;;1.90;0.40;;;;;;;;;;6231644;22;20016;-43
2022/10/17 13:10:24;;;;;;;1.98;0.43;;;;;;;;;;6236244;22;20343;-46
2022/10/17 13:12:51;;;;;;;2.33;0.95;;;;;;;;;;6243580;22;20022;-44
2022/10/17 13:15:18;;;;;;;2.92;1.13;;;;;;;;;;6235875;22;20015;-42
2022/10/17 13:17:45;;;;;;;1.77;0.40;;;;;;;;;;6230277;22;20447;-43
2022/10/17 13:20:18;;;;;;;3.50;0.30;;;;;;;;;;6235350;22;20692;-42
2022/10/17 13:22:45;;;;;;;3.35;0.73;;;;;;;;;;6240775;22;20351;-42
2022/10/17 13:25:14;;;;;;;2.15;0.82;;;;;;;;;;6239073;22;20051;-42
2022/10/17 13:27:42;;;;;;;3.13;0.90;;;;;;;;;;6202070;22;20517;-42
2022/10/17 13:30:22;;;;;;;7.23;0.63;;;;;;;;;;6242281;22;20019;-44
2022/10/17 13:32:48;;;;;;;1.80;0.47;;;;;;;;;;6241445;22;20139;-43
2022/10/17 13:35:15;;;;;;;1.60;0.50;;;;;;;;;;6237351;22;20031;-44
2022/10/17 13:37:43;;;;;;;2.33;0.63;;;;;;;;;;6230090;22;20069;-42
2022/10/17 13:40:15;;;;;;;2.45;0.50;;;;;;;;;;6239020;22;20012;-43
2022/10/17 13:42:43;;;;;;;2.70;0.50;;;;;;;;;;6237212;22;20015;-42
2022/10/17 13:45:16;;;;;;;1.83;0.47;;;;;;;;;;6238873;22;20016;-44
2022/10/17 13:47:43;;;;;;;1.90;0.50;;;;;;;;;;6195177;22;20433;-42
2022/10/17 13:50:16;;;;;;;1.70;0.40;;;;;;;;;;6241884;22;20026;-43
2022/10/17 13:52:43;;;;;;;1.48;0.30;;;;;;;;;;6210651;22;20023;-43
2022/10/17 13:55:14;;;;;;;2.57;0.70;;;;;;;;;;6238524;22;20012;-44
2022/10/17 13:57:44;;;;;;;4.22;0.47;;;;;;;;;;6223261;22;20391;-42
2022/10/17 14:00:15;;;;;;;1.65;0.40;;;;;;;;;;6239853;22;20020;-43
2022/10/17 14:02:41;;;;;;;3.55;0.60;;;;;;;;;;6238366;22;20474;-45
2022/10/17 14:05:12;;;;;;;2.10;0.70;;;;;;;;;;6209529;22;20122;-42
2022/10/17 14:07:39;;;;;;;3.03;0.77;;;;;;;;;;6234556;22;20015;-42
2022/10/17 14:10:17;;;;;;;3.97;0.90;;;;;;;;;;6233369;22;20401;-42
2022/10/17 14:12:45;;;;;;;4.85;1.00;;;;;;;;;;6240169;22;20024;-44
2022/10/17 14:15:14;;;;;;;5.65;1.17;;;;;;;;;;6238204;22;20015;-44
2022/10/17 14:17:41;;;;;;;3.33;0.77;;;;;;;;;;6194516;22;20093;-45
2022/10/17 14:20:08;;;;;;;1.93;0.40;;;;;;;;;;6237491;22;20529;-42
2022/10/17 14:22:35;;;;;;;2.40;0.50;;;;;;;;;;6232475;22;20764;-45
2022/10/17 14:25:03;;;;;;;2.30;0.60;;;;;;;;;;6240004;22;20057;-42
2022/10/17 14:27:30;;;;;;;1.90;0.50;;;;;;;;;;6229494;22;20016;-46
2022/10/17 14:30:01;;;;;;;1.85;0.50;;;;;;;;;;6255995;22;20540;-42
2022/10/17 14:32:28;;;;;;;1.50;0.30;;;;;;;;;;6231292;22;20117;-42
2022/10/17 14:34:56;;;;;;;2.90;0.80;;;;;;;;;;6238945;22;20061;-44
2022/10/17 14:37:30;;;;;;;3.50;0.88;;;;;;;;;;6226610;22;20280;-41
2022/10/17 14:39:59;;;;;;;2.55;0.50;;;;;;;;;;6236946;22;20100;-41
2022/10/17 14:42:26;;;;;;;2.45;0.60;;;;;;;;;;6237010;22;20015;-43
2022/10/17 14:44:54;;;;;;;1.80;0.50;;;;;;;;;;6237670;22;20064;-43
2022/10/17 14:47:25;;;;;;;1.95;0.40;;;;;;;;;;6227283;22;20488;-45
2022/10/17 14:50:02;;;;;;;1.67;0.40;;;;;;;;;;6237952;22;20275;-42
2022/10/17 14:52:30;;;;;;;1.50;0.30;;;;;;;;;;6238136;22;20019;-45